Time,TemperatureF,DewpointF,PressureIn,WindDirection,WindDirectionDegrees,WindSpeedMPH,WindSpeedGustMPH,Humidity,HourlyPrecipIn,Conditions,Clouds,dailyrainin,SoftwareType,DateUTC
2013-03-30 00:00:00,62.6,18.5,25.78,West,270,0.0,0.0,18,0.00,,---,0.00,VWS V13.01,2013-03-30 07:00:00,
2013-03-30 00:20:00,61.7,19.0,25.78,SW,223,0.0,0.0,19,0.00,,---,0.00,VWS V13.01,2013-03-30 07:20:00,
2013-03-30 00:40:00,61.5,18.9,25.78,SW,230,3.6,4.9,19,0.00,,---,0.00,VWS V13.01,2013-03-30 07:40:00,
2013-03-30 01:00:00,61.9,19.2,25.75,SW,235,5.4,5.4,19,0.00,,---,0.00,VWS V13.01,2013-03-30 08:00:00,
2013-03-30 01:20:00,61.9,19.2,25.75,SW,232,2.7,5.4,19,0.00,,---,0.00,VWS V13.01,2013-03-30 08:20:00,
2013-03-30 01:40:00,61.5,18.9,25.75,SW,233,0.0,3.1,19,0.00,,---,0.00,VWS V13.01,2013-03-30 08:40:00,
2013-03-30 02:00:00,60.3,17.9,25.75,SE,144,3.1,4.9,19,0.00,,---,0.00,VWS V13.01,2013-03-30 09:00:00,
2013-03-30 02:20:00,59.5,17.3,25.75,SE,132,2.7,4.9,19,0.00,,---,0.00,VWS V13.01,2013-03-30 09:20:00,
2013-03-30 02:40:00,59.0,16.8,25.75,SE,133,0.0,3.1,19,0.00,,---,0.00,VWS V13.01,2013-03-30 09:40:00,
2013-03-30 03:00:00,57.9,15.9,25.75,SW,221,0.0,0.0,19,0.00,,---,0.00,VWS V13.01,2013-03-30 10:00:00,
2013-03-30 03:20:00,57.2,15.3,25.75,SW,218,2.2,4.0,19,0.00,,---,0.00,VWS V13.01,2013-03-30 10:20:00,
2013-03-30 03:40:00,57.2,15.3,25.75,SW,218,2.7,3.6,19,0.00,,---,0.00,VWS V13.01,2013-03-30 10:40:00,
2013-03-30 04:00:00,57.2,15.3,25.75,SW,218,2.7,4.0,19,0.00,,---,0.00,VWS V13.01,2013-03-30 11:00:00,
2013-03-30 04:20:00,57.2,15.3,25.72,SW,218,0.0,4.0,19,0.00,,---,0.00,VWS V13.01,2013-03-30 11:20:00,
2013-03-30 04:40:00,57.2,15.3,25.75,SW,218,3.1,3.6,19,0.00,,---,0.00,VWS V13.01,2013-03-30 11:40:00,
2013-03-30 05:00:00,57.2,15.3,25.72,SW,218,2.7,3.6,19,0.00,,---,0.00,VWS V13.01,2013-03-30 12:00:00,
2013-03-30 05:20:00,57.2,15.3,25.75,SW,218,2.7,4.0,19,0.00,,---,0.00,VWS V13.01,2013-03-30 12:20:00,
2013-03-30 05:40:00,57.0,16.4,25.75,SW,218,2.7,3.6,20,0.00,,---,0.00,VWS V13.01,2013-03-30 12:40:00,
2013-03-30 06:00:00,56.7,16.1,25.75,SW,218,0.0,3.1,20,0.00,,---,0.00,VWS V13.01,2013-03-30 13:00:00,
2013-03-30 06:20:00,56.7,16.1,25.75,SW,218,3.6,4.0,20,0.00,,---,0.00,VWS V13.01,2013-03-30 13:20:00,
2013-03-30 06:40:00,56.8,16.2,25.75,WSW,249,2.7,3.6,20,0.00,,---,0.00,VWS V13.01,2013-03-30 13:40:00,
2013-03-30 07:00:00,57.0,16.4,25.75,SW,227,2.7,3.6,20,0.00,,---,0.00,VWS V13.01,2013-03-30 14:00:00,
2013-03-30 07:20:00,59.2,17.0,25.75,SW,228,0.0,2.7,19,0.00,,---,0.00,VWS V13.01,2013-03-30 14:20:00,
2013-03-30 07:40:00,62.2,19.5,25.75,SW,225,0.0,0.0,19,0.00,,---,0.00,VWS V13.01,2013-03-30 14:40:00,
2013-03-30 08:00:00,64.2,19.9,25.75,SE,136,0.0,0.0,18,0.00,,---,0.00,VWS V13.01,2013-03-30 15:00:00,
2013-03-30 08:20:00,64.9,20.4,25.75,NE,49,2.2,4.9,18,0.00,,---,0.00,VWS V13.01,2013-03-30 15:20:00,
2013-03-30 08:40:00,65.8,21.2,25.75,ESE,112,3.1,4.0,18,0.00,,---,0.00,VWS V13.01,2013-03-30 15:40:00,
2013-03-30 09:00:00,66.6,20.4,25.75,SE,137,2.7,4.5,17,0.00,,---,0.00,VWS V13.01,2013-03-30 16:00:00,
2013-03-30 09:20:00,67.8,21.5,25.75,ESE,110,0.0,6.3,17,0.00,,---,0.00,VWS V13.01,2013-03-30 16:20:00,
2013-03-30 09:40:00,68.4,21.9,25.75,ESE,122,2.7,5.8,17,0.00,,---,0.00,VWS V13.01,2013-03-30 16:40:00,
2013-03-30 10:00:00,68.9,22.3,25.75,SSE,150,4.0,8.1,17,0.00,,---,0.00,VWS V13.01,2013-03-30 17:00:00,
2013-03-30 10:20:00,70.2,23.4,25.75,SSW,198,2.7,8.3,17,0.00,,---,0.00,VWS V13.01,2013-03-30 17:20:00,
2013-03-30 10:40:00,71.2,24.2,25.75,SE,131,5.8,10.5,17,0.00,,---,0.00,VWS V13.01,2013-03-30 17:40:00,
2013-03-30 11:00:00,72.9,24.1,25.75,SE,141,4.9,10.5,16,0.00,,---,0.00,VWS V13.01,2013-03-30 18:00:00,
2013-03-30 11:20:00,74.1,25.1,25.75,WSW,237,3.1,7.2,16,0.00,,---,0.00,VWS V13.01,2013-03-30 18:20:00,
2013-03-30 11:40:00,74.3,25.2,25.72,SE,133,0.0,6.7,16,0.00,,---,0.00,VWS V13.01,2013-03-30 18:40:00,
2013-03-30 12:00:00,74.3,25.2,25.72,SW,236,3.6,6.3,16,0.00,,---,0.00,VWS V13.01,2013-03-30 19:00:00,
2013-03-30 12:20:00,74.5,25.4,25.72,SSW,199,3.1,8.7,16,0.00,,---,0.00,VWS V13.01,2013-03-30 19:20:00,
2013-03-30 12:40:00,75.0,25.8,25.72,SW,236,0.0,11.0,16,0.00,,---,0.00,VWS V13.01,2013-03-30 19:40:00,
2013-03-30 13:00:00,75.7,24.9,25.72,SSW,204,6.3,6.3,15,0.00,,---,0.00,VWS V13.01,2013-03-30 20:00:00,
2013-03-30 13:20:00,76.1,25.1,25.72,SSW,207,4.0,8.7,15,0.00,,---,0.00,VWS V13.01,2013-03-30 20:20:00,
2013-03-30 13:40:00,75.7,24.9,25.69,SSW,196,10.1,11.0,15,0.00,,---,0.00,VWS V13.01,2013-03-30 20:40:00,
2013-03-30 14:00:00,76.1,25.1,25.69,SW,224,6.3,13.2,15,0.00,,---,0.00,VWS V13.01,2013-03-30 21:00:00,
2013-03-30 14:20:00,76.3,25.3,25.69,WNW,298,3.6,8.7,15,0.00,,---,0.00,VWS V13.01,2013-03-30 21:20:00,
2013-03-30 14:40:00,75.7,24.9,25.69,SW,217,5.8,12.8,15,0.00,,---,0.00,VWS V13.01,2013-03-30 21:40:00,
2013-03-30 15:00:00,76.3,25.3,25.69,SW,214,8.3,11.4,15,0.00,,---,0.00,VWS V13.01,2013-03-30 22:00:00,
2013-03-30 15:20:00,76.3,25.3,25.69,SSW,210,8.7,15.0,15,0.00,,---,0.00,VWS V13.01,2013-03-30 22:20:00,
2013-03-30 15:40:00,76.3,25.3,25.69,South,189,3.1,12.3,15,0.00,,---,0.00,VWS V13.01,2013-03-30 22:40:00,
2013-03-30 16:00:00,76.8,25.7,25.69,South,169,0.0,13.2,15,0.00,,---,0.00,VWS V13.01,2013-03-30 23:00:00,
2013-03-30 16:20:00,77.0,25.9,25.66,SE,142,6.3,8.1,15,0.00,,---,0.00,VWS V13.01,2013-03-30 23:20:00,
2013-03-30 16:40:00,76.3,25.3,25.66,SW,218,3.1,11.0,15,0.00,,---,0.00,VWS V13.01,2013-03-30 23:40:00,
2013-03-30 17:00:00,74.8,25.7,25.66,NW,316,5.4,15.4,16,0.00,,---,0.00,VWS V13.01,2013-03-31 00:00:00,
2013-03-30 17:20:00,74.1,25.1,25.66,WNW,283,5.8,8.7,16,0.00,,---,0.00,VWS V13.01,2013-03-31 00:20:00,
2013-03-30 17:40:00,74.1,25.1,25.63,WNW,299,4.0,10.5,16,0.00,,---,0.00,VWS V13.01,2013-03-31 00:40:00,
2013-03-30 18:00:00,72.5,23.8,25.66,WSW,242,5.8,10.5,16,0.00,,---,0.00,VWS V13.01,2013-03-31 01:00:00,
2013-03-30 18:20:00,71.1,24.1,25.66,WSW,254,4.0,8.7,17,0.00,,---,0.00,VWS V13.01,2013-03-31 01:20:00,
2013-03-30 18:40:00,70.2,23.4,25.66,SW,231,6.3,10.5,17,0.00,,---,0.00,VWS V13.01,2013-03-31 01:40:00,
2013-03-30 19:00:00,69.3,22.6,25.66,SW,234,6.3,8.1,17,0.00,,---,0.00,VWS V13.01,2013-03-31 02:00:00,
2013-03-30 19:20:00,68.4,21.9,25.69,SW,223,5.4,7.6,17,0.00,,---,0.00,VWS V13.01,2013-03-31 02:20:00,
2013-03-30 19:40:00,67.6,21.3,25.66,WSW,254,4.9,6.3,17,0.00,,---,0.00,VWS V13.01,2013-03-31 02:40:00,
2013-03-30 20:00:00,66.7,20.6,25.69,West,272,3.6,5.8,17,0.00,,---,0.00,VWS V13.01,2013-03-31 03:00:00,
2013-03-30 20:20:00,65.8,21.2,25.69,SW,228,2.7,4.9,18,0.00,,---,0.00,VWS V13.01,2013-03-31 03:20:00,
2013-03-30 20:40:00,64.8,20.3,25.69,SW,222,4.9,5.4,18,0.00,,---,0.00,VWS V13.01,2013-03-31 03:40:00,
2013-03-30 21:00:00,63.9,19.6,25.69,West,271,3.1,6.3,18,0.00,,---,0.00,VWS V13.01,2013-03-31 04:00:00,
2013-03-30 21:20:00,63.1,19.0,25.69,WNW,287,4.0,8.7,18,0.00,,---,0.00,VWS V13.01,2013-03-31 04:20:00,
2013-03-30 21:40:00,62.8,18.7,25.69,WSW,258,2.7,8.1,18,0.00,,---,0.00,VWS V13.01,2013-03-31 04:40:00,
2013-03-30 22:00:00,62.4,19.6,25.69,West,280,2.7,5.8,19,0.00,,---,0.00,VWS V13.01,2013-03-31 05:00:00,
2013-03-30 22:20:00,61.5,18.9,25.69,North,357,3.6,7.6,19,0.00,,---,0.00,VWS V13.01,2013-03-31 05:20:00,
2013-03-30 22:40:00,61.3,18.8,25.72,WNW,295,3.1,8.3,19,0.00,,---,0.00,VWS V13.01,2013-03-31 05:40:00,
2013-03-30 23:00:00,60.8,18.3,25.69,WSW,240,4.0,8.1,19,0.00,,---,0.00,VWS V13.01,2013-03-31 06:00:00,
2013-03-30 23:20:00,60.4,18.0,25.69,WNW,291,3.1,8.7,19,0.00,,---,0.00,VWS V13.01,2013-03-31 06:20:00,
2013-03-30 23:40:00,60.3,17.9,25.69,SW,229,5.4,8.1,19,0.00,,---,0.00,VWS V13.01,2013-03-31 06:40:00,